sensor_id;sensor_type;location;lat;lon;timestamp;temperature;humidity
13049;DHT22;6591;51.446;5.404;2022-09-12T00:01:20;16.60;99.90
13049;DHT22;6591;51.446;5.404;2022-09-12T00:03:58;14.70;99.90
13049;DHT22;6591;51.446;5.404;2022-09-12T00:06:33;16.40;99.90
13049;DHT22;6591;51.446;5.404;2022-09-12T00:09:08;14.60;99.90
13049;DHT22;6591;51.446;5.404;2022-09-12T00:11:39;14.60;99.90
13049;DHT22;6591;51.446;5.404;2022-09-12T00:14:09;14.50;99.90
13049;DHT22;6591;51.446;5.404;2022-09-12T00:16:39;16.70;99.90
13049;DHT22;6591;51.446;5.404;2022-09-12T00:19:08;16.60;99.90
13049;DHT22;6591;51.446;5.404;2022-09-12T00:21:36;15.40;99.90
13049;DHT22;6591;51.446;5.404;2022-09-12T00:24:05;15.20;99.90
13049;DHT22;6591;51.446;5.404;2022-09-12T00:26:33;14.40;99.90
13049;DHT22;6591;51.446;5.404;2022-09-12T00:29:00;14.40;99.90
13049;DHT22;6591;51.446;5.404;2022-09-12T00:31:27;15.40;99.90
13049;DHT22;6591;51.446;5.404;2022-09-12T00:33:56;16.80;99.90
13049;DHT22;6591;51.446;5.404;2022-09-12T00:36:27;15.50;99.90
13049;DHT22;6591;51.446;5.404;2022-09-12T00:38:55;16.90;99.90
13049;DHT22;6591;51.446;5.404;2022-09-12T00:41:29;15.20;99.90
13049;DHT22;6591;51.446;5.404;2022-09-12T00:44:50;14.30;99.90
13049;DHT22;6591;51.446;5.404;2022-09-12T00:47:13;14.30;99.90
13049;DHT22;6591;51.446;5.404;2022-09-12T00:49:58;14.30;99.90
13049;DHT22;6591;51.446;5.404;2022-09-12T00:52:52;14.30;99.90
13049;DHT22;6591;51.446;5.404;2022-09-12T00:55:26;15.60;99.90
13049;DHT22;6591;51.446;5.404;2022-09-12T00:58:10;14.20;99.90
13049;DHT22;6591;51.446;5.404;2022-09-12T01:00:50;14.60;99.90
13049;DHT22;6591;51.446;5.404;2022-09-12T01:03:20;14.20;99.90
13049;DHT22;6591;51.446;5.404;2022-09-12T01:06:00;14.10;99.90
13049;DHT22;6591;51.446;5.404;2022-09-12T01:08:34;14.30;99.90
13049;DHT22;6591;51.446;5.404;2022-09-12T01:11:05;16.30;99.90
13049;DHT22;6591;51.446;5.404;2022-09-12T01:13:35;14.10;99.90
13049;DHT22;6591;51.446;5.404;2022-09-12T01:16:04;15.40;99.90
13049;DHT22;6591;51.446;5.404;2022-09-12T01:27:32;14.10;99.90
13049;DHT22;6591;51.446;5.404;2022-09-12T01:33:19;14.00;99.90
13049;DHT22;6591;51.446;5.404;2022-09-12T01:38:59;14.10;99.90
13049;DHT22;6591;51.446;5.404;2022-09-12T01:48:06;14.00;99.90
13049;DHT22;6591;51.446;5.404;2022-09-12T01:51:03;14.00;99.90
13049;DHT22;6591;51.446;5.404;2022-09-12T01:53:57;14.10;99.90
13049;DHT22;6591;51.446;5.404;2022-09-12T01:56:33;14.10;99.90
13049;DHT22;6591;51.446;5.404;2022-09-12T01:59:10;15.00;99.90
13049;DHT22;6591;51.446;5.404;2022-09-12T02:01:50;14.10;99.90
13049;DHT22;6591;51.446;5.404;2022-09-12T02:04:28;14.10;99.90
13049;DHT22;6591;51.446;5.404;2022-09-12T02:07:07;16.00;99.90
13049;DHT22;6591;51.446;5.404;2022-09-12T02:09:48;14.10;99.90
13049;DHT22;6591;51.446;5.404;2022-09-12T02:12:25;14.10;99.90
13049;DHT22;6591;51.446;5.404;2022-09-12T02:15:03;16.60;99.90
13049;DHT22;6591;51.446;5.404;2022-09-12T02:17:41;14.10;99.90
13049;DHT22;6591;51.446;5.404;2022-09-12T02:20:22;15.50;99.90
13049;DHT22;6591;51.446;5.404;2022-09-12T02:23:31;13.90;99.90
13049;DHT22;6591;51.446;5.404;2022-09-12T02:26:04;13.00;99.90
13049;DHT22;6591;51.446;5.404;2022-09-12T02:28:41;13.90;99.90
13049;DHT22;6591;51.446;5.404;2022-09-12T02:31:29;15.00;99.90
13049;DHT22;6591;51.446;5.404;2022-09-12T02:34:37;13.90;99.90
13049;DHT22;6591;51.446;5.404;2022-09-12T02:40:26;13.80;99.90
13049;DHT22;6591;51.446;5.404;2022-09-12T02:42:55;15.30;99.90
13049;DHT22;6591;51.446;5.404;2022-09-12T02:45:22;15.60;99.90
13049;DHT22;6591;51.446;5.404;2022-09-12T02:48:09;13.90;99.90
13049;DHT22;6591;51.446;5.404;2022-09-12T02:50:41;13.80;99.90
13049;DHT22;6591;51.446;5.404;2022-09-12T02:53:09;13.80;99.90
13049;DHT22;6591;51.446;5.404;2022-09-12T02:55:39;13.80;99.90
13049;DHT22;6591;51.446;5.404;2022-09-12T02:58:13;13.70;99.90
13049;DHT22;6591;51.446;5.404;2022-09-12T03:16:34;13.80;99.90
13049;DHT22;6591;51.446;5.404;2022-09-12T03:19:24;13.80;99.90
13049;DHT22;6591;51.446;5.404;2022-09-12T03:22:42;13.90;99.90
13049;DHT22;6591;51.446;5.404;2022-09-12T03:25:35;13.90;99.90
13049;DHT22;6591;51.446;5.404;2022-09-12T03:28:15;13.90;99.90
13049;DHT22;6591;51.446;5.404;2022-09-12T03:30:45;14.70;99.90
13049;DHT22;6591;51.446;5.404;2022-09-12T03:33:19;14.90;99.90
13049;DHT22;6591;51.446;5.404;2022-09-12T03:35:48;14.70;99.90
13049;DHT22;6591;51.446;5.404;2022-09-12T03:38:17;16.30;99.90
13049;DHT22;6591;51.446;5.404;2022-09-12T03:40:45;15.70;99.90
13049;DHT22;6591;51.446;5.404;2022-09-12T03:43:18;13.90;99.90
13049;DHT22;6591;51.446;5.404;2022-09-12T03:45:51;13.90;99.90
13049;DHT22;6591;51.446;5.404;2022-09-12T03:48:19;16.90;99.90
13049;DHT22;6591;51.446;5.404;2022-09-12T03:50:46;16.30;99.90
13049;DHT22;6591;51.446;5.404;2022-09-12T03:53:15;13.90;99.90
13049;DHT22;6591;51.446;5.404;2022-09-12T03:55:43;15.30;99.90
13049;DHT22;6591;51.446;5.404;2022-09-12T03:58:10;16.10;99.90
13049;DHT22;6591;51.446;5.404;2022-09-12T04:00:41;13.90;99.90
13049;DHT22;6591;51.446;5.404;2022-09-12T04:03:10;12.10;99.90
13049;DHT22;6591;51.446;5.404;2022-09-12T04:05:37;14.00;99.90
13049;DHT22;6591;51.446;5.404;2022-09-12T04:08:05;14.00;99.90
13049;DHT22;6591;51.446;5.404;2022-09-12T04:10:33;14.00;99.90
13049;DHT22;6591;51.446;5.404;2022-09-12T04:13:00;14.00;99.90
13049;DHT22;6591;51.446;5.404;2022-09-12T04:15:27;14.00;99.90
13049;DHT22;6591;51.446;5.404;2022-09-12T04:17:55;15.80;99.90
13049;DHT22;6591;51.446;5.404;2022-09-12T04:20:22;13.90;99.90
13049;DHT22;6591;51.446;5.404;2022-09-12T04:22:50;14.00;99.90
13049;DHT22;6591;51.446;5.404;2022-09-12T04:25:17;16.40;99.90
13049;DHT22;6591;51.446;5.404;2022-09-12T04:27:45;16.50;99.90
13049;DHT22;6591;51.446;5.404;2022-09-12T04:30:13;13.90;99.90
13049;DHT22;6591;51.446;5.404;2022-09-12T04:32:40;14.00;99.90
13049;DHT22;6591;51.446;5.404;2022-09-12T04:35:08;14.00;99.90
13049;DHT22;6591;51.446;5.404;2022-09-12T04:37:37;14.10;99.90
13049;DHT22;6591;51.446;5.404;2022-09-12T04:40:05;14.10;99.90
13049;DHT22;6591;51.446;5.404;2022-09-12T04:42:33;14.10;99.90
13049;DHT22;6591;51.446;5.404;2022-09-12T04:45:02;16.80;99.90
13049;DHT22;6591;51.446;5.404;2022-09-12T04:47:35;14.10;99.90
13049;DHT22;6591;51.446;5.404;2022-09-12T04:50:02;14.10;99.90
13049;DHT22;6591;51.446;5.404;2022-09-12T04:52:31;14.10;99.90
13049;DHT22;6591;51.446;5.404;2022-09-12T04:54:59;14.10;99.90
13049;DHT22;6591;51.446;5.404;2022-09-12T04:57:26;15.20;99.90
13049;DHT22;6591;51.446;5.404;2022-09-12T04:59:53;14.10;99.90
13049;DHT22;6591;51.446;5.404;2022-09-12T05:02:20;15.70;99.90
13049;DHT22;6591;51.446;5.404;2022-09-12T05:04:47;15.40;99.90
13049;DHT22;6591;51.446;5.404;2022-09-12T05:07:15;16.10;99.90
13049;DHT22;6591;51.446;5.404;2022-09-12T05:09:42;14.10;99.90
13049;DHT22;6591;51.446;5.404;2022-09-12T05:12:09;14.20;99.90
13049;DHT22;6591;51.446;5.404;2022-09-12T05:14:37;15.80;99.90
13049;DHT22;6591;51.446;5.404;2022-09-12T05:17:04;15.80;99.90
13049;DHT22;6591;51.446;5.404;2022-09-12T05:19:32;14.40;99.90
13049;DHT22;6591;51.446;5.404;2022-09-12T05:22:02;16.70;99.90
13049;DHT22;6591;51.446;5.404;2022-09-12T05:24:30;16.00;99.90
13049;DHT22;6591;51.446;5.404;2022-09-12T05:26:59;16.40;99.90
13049;DHT22;6591;51.446;5.404;2022-09-12T05:29:29;14.20;99.90
13049;DHT22;6591;51.446;5.404;2022-09-12T05:31:56;14.30;99.90
13049;DHT22;6591;51.446;5.404;2022-09-12T05:34:26;16.40;99.90
13049;DHT22;6591;51.446;5.404;2022-09-12T05:36:53;16.40;99.90
13049;DHT22;6591;51.446;5.404;2022-09-12T05:39:20;14.30;99.90
13049;DHT22;6591;51.446;5.404;2022-09-12T05:41:47;14.70;99.90
13049;DHT22;6591;51.446;5.404;2022-09-12T05:44:15;16.20;99.90
13049;DHT22;6591;51.446;5.404;2022-09-12T05:46:43;14.20;99.90
13049;DHT22;6591;51.446;5.404;2022-09-12T05:49:12;15.80;99.90
13049;DHT22;6591;51.446;5.404;2022-09-12T05:51:42;15.60;99.90
13049;DHT22;6591;51.446;5.404;2022-09-12T05:54:13;14.60;99.90
13049;DHT22;6591;51.446;5.404;2022-09-12T05:56:43;15.70;99.90
13049;DHT22;6591;51.446;5.404;2022-09-12T05:59:18;15.70;99.90
13049;DHT22;6591;51.446;5.404;2022-09-12T06:01:47;13.90;99.90
13049;DHT22;6591;51.446;5.404;2022-09-12T06:04:15;16.80;99.90
13049;DHT22;6591;51.446;5.404;2022-09-12T06:06:43;14.60;99.90
13049;DHT22;6591;51.446;5.404;2022-09-12T06:09:15;16.30;99.90
13049;DHT22;6591;51.446;5.404;2022-09-12T06:11:44;17.30;99.90
13049;DHT22;6591;51.446;5.404;2022-09-12T06:14:13;14.20;99.90
13049;DHT22;6591;51.446;5.404;2022-09-12T06:16:41;17.30;99.90
13049;DHT22;6591;51.446;5.404;2022-09-12T06:19:17;15.70;99.90
13049;DHT22;6591;51.446;5.404;2022-09-12T06:21:46;15.00;99.90
13049;DHT22;6591;51.446;5.404;2022-09-12T06:24:16;15.00;99.90
13049;DHT22;6591;51.446;5.404;2022-09-12T06:26:45;16.30;99.90
13049;DHT22;6591;51.446;5.404;2022-09-12T06:29:13;17.70;99.90
13049;DHT22;6591;51.446;5.404;2022-09-12T06:31:42;17.90;99.90
13049;DHT22;6591;51.446;5.404;2022-09-12T06:34:11;16.10;99.90
13049;DHT22;6591;51.446;5.404;2022-09-12T06:36:45;17.10;99.90
13049;DHT22;6591;51.446;5.404;2022-09-12T06:39:19;15.30;99.90
13049;DHT22;6591;51.446;5.404;2022-09-12T06:41:49;15.30;99.90
13049;DHT22;6591;51.446;5.404;2022-09-12T06:44:27;15.30;99.90
13049;DHT22;6591;51.446;5.404;2022-09-12T06:46:55;17.30;99.90
13049;DHT22;6591;51.446;5.404;2022-09-12T06:49:24;15.40;99.90
13049;DHT22;6591;51.446;5.404;2022-09-12T06:51:51;15.40;99.90
13049;DHT22;6591;51.446;5.404;2022-09-12T06:54:18;17.80;99.90
13049;DHT22;6591;51.446;5.404;2022-09-12T06:56:48;15.60;99.90
13049;DHT22;6591;51.446;5.404;2022-09-12T06:59:15;15.70;99.90
13049;DHT22;6591;51.446;5.404;2022-09-12T07:01:42;16.80;99.90
13049;DHT22;6591;51.446;5.404;2022-09-12T07:04:10;17.00;99.90
13049;DHT22;6591;51.446;5.404;2022-09-12T07:06:39;16.10;99.90
13049;DHT22;6591;51.446;5.404;2022-09-12T07:09:11;18.20;99.90
13049;DHT22;6591;51.446;5.404;2022-09-12T07:11:40;16.20;99.90
13049;DHT22;6591;51.446;5.404;2022-09-12T07:14:10;16.20;99.90
13049;DHT22;6591;51.446;5.404;2022-09-12T07:16:39;16.40;99.90
13049;DHT22;6591;51.446;5.404;2022-09-12T07:19:07;17.20;99.90
13049;DHT22;6591;51.446;5.404;2022-09-12T07:21:35;16.30;99.90
13049;DHT22;6591;51.446;5.404;2022-09-12T07:24:07;15.70;99.90
13049;DHT22;6591;51.446;5.404;2022-09-12T07:26:38;16.30;99.90
13049;DHT22;6591;51.446;5.404;2022-09-12T07:29:06;17.90;99.90
13049;DHT22;6591;51.446;5.404;2022-09-12T07:31:56;16.50;99.90
13049;DHT22;6591;51.446;5.404;2022-09-12T07:34:23;16.60;99.90
13049;DHT22;6591;51.446;5.404;2022-09-12T07:36:50;18.40;99.90
13049;DHT22;6591;51.446;5.404;2022-09-12T07:39:17;18.10;99.90
13049;DHT22;6591;51.446;5.404;2022-09-12T07:41:43;17.30;99.90
13049;DHT22;6591;51.446;5.404;2022-09-12T07:44:11;17.10;99.90
13049;DHT22;6591;51.446;5.404;2022-09-12T07:46:38;17.40;99.90
13049;DHT22;6591;51.446;5.404;2022-09-12T07:49:05;18.70;99.90
13049;DHT22;6591;51.446;5.404;2022-09-12T07:51:34;19.20;99.90
13049;DHT22;6591;51.446;5.404;2022-09-12T07:54:01;19.20;99.90
13049;DHT22;6591;51.446;5.404;2022-09-12T07:56:34;19.80;99.90
13049;DHT22;6591;51.446;5.404;2022-09-12T07:59:05;18.60;99.90
13049;DHT22;6591;51.446;5.404;2022-09-12T08:01:33;20.90;99.90
13049;DHT22;6591;51.446;5.404;2022-09-12T08:04:00;21.60;99.90
13049;DHT22;6591;51.446;5.404;2022-09-12T08:06:28;19.40;99.90
13049;DHT22;6591;51.446;5.404;2022-09-12T08:09:05;19.60;99.90
13049;DHT22;6591;51.446;5.404;2022-09-12T08:11:33;19.90;99.90
13049;DHT22;6591;51.446;5.404;2022-09-12T08:14:00;22.40;99.90
13049;DHT22;6591;51.446;5.404;2022-09-12T08:16:32;20.40;99.90
13049;DHT22;6591;51.446;5.404;2022-09-12T08:19:02;20.60;99.90
13049;DHT22;6591;51.446;5.404;2022-09-12T08:21:31;22.20;99.90
13049;DHT22;6591;51.446;5.404;2022-09-12T08:24:01;21.00;99.90
13049;DHT22;6591;51.446;5.404;2022-09-12T08:26:30;21.30;99.90
13049;DHT22;6591;51.446;5.404;2022-09-12T08:29:01;21.60;99.90
13049;DHT22;6591;51.446;5.404;2022-09-12T08:31:30;22.60;99.90
13049;DHT22;6591;51.446;5.404;2022-09-12T08:34:05;22.00;99.90
13049;DHT22;6591;51.446;5.404;2022-09-12T08:36:33;23.70;99.90
13049;DHT22;6591;51.446;5.404;2022-09-12T08:39:04;22.50;99.90
13049;DHT22;6591;51.446;5.404;2022-09-12T08:41:47;22.70;99.90
13049;DHT22;6591;51.446;5.404;2022-09-12T08:47:35;23.20;99.90
13049;DHT22;6591;51.446;5.404;2022-09-12T08:52:57;23.60;99.90
13049;DHT22;6591;51.446;5.404;2022-09-12T08:58:19;24.10;99.90
13049;DHT22;6591;51.446;5.404;2022-09-12T09:01:56;24.20;99.90
13049;DHT22;6591;51.446;5.404;2022-09-12T09:04:17;24.30;99.90
13049;DHT22;6591;51.446;5.404;2022-09-12T09:16:32;25.00;99.90
13049;DHT22;6591;51.446;5.404;2022-09-12T09:19:08;25.30;99.90
13049;DHT22;6591;51.446;5.404;2022-09-12T09:22:03;25.40;99.90
13049;DHT22;6591;51.446;5.404;2022-09-12T09:25:01;25.60;99.90
13049;DHT22;6591;51.446;5.404;2022-09-12T09:27:41;26.00;99.90
13049;DHT22;6591;51.446;5.404;2022-09-12T09:30:17;26.20;99.90
13049;DHT22;6591;51.446;5.404;2022-09-12T09:32:53;26.50;99.90
13049;DHT22;6591;51.446;5.404;2022-09-12T09:35:39;26.00;99.90
13049;DHT22;6591;51.446;5.404;2022-09-12T09:38:49;26.90;99.90
13049;DHT22;6591;51.446;5.404;2022-09-12T09:44:52;27.50;99.90
13049;DHT22;6591;51.446;5.404;2022-09-12T09:47:21;27.70;99.90
13049;DHT22;6591;51.446;5.404;2022-09-12T09:49:48;27.90;99.90
13049;DHT22;6591;51.446;5.404;2022-09-12T09:52:18;28.00;99.90
13049;DHT22;6591;51.446;5.404;2022-09-12T09:54:57;28.10;99.60
13049;DHT22;6591;51.446;5.404;2022-09-12T10:05:49;28.60;97.60
13049;DHT22;6591;51.446;5.404;2022-09-12T10:08:32;28.80;97.70
13049;DHT22;6591;51.446;5.404;2022-09-12T10:16:23;29.40;97.20
13049;DHT22;6591;51.446;5.404;2022-09-12T10:18:51;29.70;97.20
13049;DHT22;6591;51.446;5.404;2022-09-12T10:21:34;29.70;97.10
13049;DHT22;6591;51.446;5.404;2022-09-12T10:26:57;30.10;95.30
13049;DHT22;6591;51.446;5.404;2022-09-12T10:29:46;30.30;95.10
13049;DHT22;6591;51.446;5.404;2022-09-12T10:32:32;30.50;93.50
13049;DHT22;6591;51.446;5.404;2022-09-12T10:35:15;30.80;93.90
13049;DHT22;6591;51.446;5.404;2022-09-12T10:37:54;30.50;93.00
13049;DHT22;6591;51.446;5.404;2022-09-12T10:40:28;30.50;93.60
13049;DHT22;6591;51.446;5.404;2022-09-12T10:43:00;30.60;93.70
13049;DHT22;6591;51.446;5.404;2022-09-12T10:45:33;31.70;94.30
13049;DHT22;6591;51.446;5.404;2022-09-12T10:48:27;30.80;93.60
13049;DHT22;6591;51.446;5.404;2022-09-12T10:50:59;31.00;91.70
13049;DHT22;6591;51.446;5.404;2022-09-12T10:53:30;31.10;92.80
13049;DHT22;6591;51.446;5.404;2022-09-12T11:02:41;31.50;91.10
13049;DHT22;6591;51.446;5.404;2022-09-12T11:08:50;31.80;90.40
13049;DHT22;6591;51.446;5.404;2022-09-12T11:21:29;32.30;88.80
13049;DHT22;6591;51.446;5.404;2022-09-12T11:24:31;32.40;83.80
13049;DHT22;6591;51.446;5.404;2022-09-12T11:27:11;32.50;88.10
13049;DHT22;6591;51.446;5.404;2022-09-12T11:30:08;33.60;84.70
13049;DHT22;6591;51.446;5.404;2022-09-12T11:35:50;32.70;81.50
13049;DHT22;6591;51.446;5.404;2022-09-12T11:38:28;32.70;83.10
13049;DHT22;6591;51.446;5.404;2022-09-12T11:41:24;32.70;83.00
13049;DHT22;6591;51.446;5.404;2022-09-12T11:44:18;32.70;81.90
13049;DHT22;6591;51.446;5.404;2022-09-12T11:46:51;32.70;81.50
13049;DHT22;6591;51.446;5.404;2022-09-12T11:49:20;32.70;82.80
13049;DHT22;6591;51.446;5.404;2022-09-12T11:52:17;32.80;82.20
13049;DHT22;6591;51.446;5.404;2022-09-12T11:55:07;32.90;79.00
13049;DHT22;6591;51.446;5.404;2022-09-12T11:57:56;33.10;80.40
13049;DHT22;6591;51.446;5.404;2022-09-12T12:08:55;33.60;76.80
13049;DHT22;6591;51.446;5.404;2022-09-12T12:11:30;33.60;76.80
13049;DHT22;6591;51.446;5.404;2022-09-12T12:14:03;33.50;74.60
13049;DHT22;6591;51.446;5.404;2022-09-12T12:16:39;33.70;75.70
13049;DHT22;6591;51.446;5.404;2022-09-12T12:21:47;33.50;73.40
13049;DHT22;6591;51.446;5.404;2022-09-12T12:24:21;33.60;73.90
13049;DHT22;6591;51.446;5.404;2022-09-12T12:29:38;33.80;73.50
13049;DHT22;6591;51.446;5.404;2022-09-12T12:34:42;34.10;74.50
13049;DHT22;6591;51.446;5.404;2022-09-12T12:48:00;34.50;68.10
13049;DHT22;6591;51.446;5.404;2022-09-12T12:50:35;34.60;69.30
13049;DHT22;6591;51.446;5.404;2022-09-12T12:53:19;34.60;70.70
13049;DHT22;6591;51.446;5.404;2022-09-12T12:55:53;34.60;68.30
13049;DHT22;6591;51.446;5.404;2022-09-12T13:03:35;34.20;67.90
13049;DHT22;6591;51.446;5.404;2022-09-12T13:06:06;34.70;68.40
13049;DHT22;6591;51.446;5.404;2022-09-12T13:08:58;34.70;68.30
13049;DHT22;6591;51.446;5.404;2022-09-12T13:11:34;34.70;66.80
13049;DHT22;6591;51.446;5.404;2022-09-12T13:14:05;35.50;66.70
13049;DHT22;6591;51.446;5.404;2022-09-12T13:16:58;34.70;67.50
13049;DHT22;6591;51.446;5.404;2022-09-12T13:19:30;34.60;67.40
13049;DHT22;6591;51.446;5.404;2022-09-12T13:22:08;34.60;66.90
13049;DHT22;6591;51.446;5.404;2022-09-12T13:24:46;34.60;64.70
13049;DHT22;6591;51.446;5.404;2022-09-12T13:27:18;34.60;64.40
13049;DHT22;6591;51.446;5.404;2022-09-12T13:29:47;34.50;66.10
13049;DHT22;6591;51.446;5.404;2022-09-12T13:32:16;34.60;66.40
13049;DHT22;6591;51.446;5.404;2022-09-12T13:41:37;34.60;65.00
13049;DHT22;6591;51.446;5.404;2022-09-12T13:44:19;34.70;64.00
13049;DHT22;6591;51.446;5.404;2022-09-12T13:46:49;34.70;66.10
13049;DHT22;6591;51.446;5.404;2022-09-12T13:49:29;34.70;65.00
13049;DHT22;6591;51.446;5.404;2022-09-12T13:52:06;34.70;63.40
13049;DHT22;6591;51.446;5.404;2022-09-12T13:54:37;34.70;64.20
13049;DHT22;6591;51.446;5.404;2022-09-12T13:57:05;34.60;64.10
13049;DHT22;6591;51.446;5.404;2022-09-12T13:59:40;34.60;63.40
13049;DHT22;6591;51.446;5.404;2022-09-12T14:02:18;34.50;60.10
13049;DHT22;6591;51.446;5.404;2022-09-12T14:04:51;34.40;60.10
13049;DHT22;6591;51.446;5.404;2022-09-12T14:07:56;34.30;61.70
13049;DHT22;6591;51.446;5.404;2022-09-12T14:10:33;34.10;59.50
13049;DHT22;6591;51.446;5.404;2022-09-12T14:13:09;34.10;61.30
13049;DHT22;6591;51.446;5.404;2022-09-12T14:15:40;34.00;62.30
13049;DHT22;6591;51.446;5.404;2022-09-12T14:20:51;34.00;61.10
13049;DHT22;6591;51.446;5.404;2022-09-12T14:23:29;34.10;64.00
13049;DHT22;6591;51.446;5.404;2022-09-12T14:26:02;34.20;62.50
13049;DHT22;6591;51.446;5.404;2022-09-12T14:28:33;34.30;63.40
13049;DHT22;6591;51.446;5.404;2022-09-12T14:31:06;34.40;63.00
13049;DHT22;6591;51.446;5.404;2022-09-12T14:33:55;34.70;61.60
13049;DHT22;6591;51.446;5.404;2022-09-12T14:36:48;34.70;62.10
13049;DHT22;6591;51.446;5.404;2022-09-12T14:39:32;34.60;59.40
13049;DHT22;6591;51.446;5.404;2022-09-12T14:42:15;34.70;60.60
13049;DHT22;6591;51.446;5.404;2022-09-12T14:44:57;34.60;60.00
13049;DHT22;6591;51.446;5.404;2022-09-12T14:47:34;34.70;59.30
13049;DHT22;6591;51.446;5.404;2022-09-12T14:50:17;34.50;59.80
13049;DHT22;6591;51.446;5.404;2022-09-12T14:53:06;34.50;58.50
13049;DHT22;6591;51.446;5.404;2022-09-12T14:56:03;34.40;58.90
13049;DHT22;6591;51.446;5.404;2022-09-12T14:58:34;34.50;59.70
13049;DHT22;6591;51.446;5.404;2022-09-12T15:03:32;34.50;60.10
13049;DHT22;6591;51.446;5.404;2022-09-12T15:06:34;32.60;59.90
13049;DHT22;6591;51.446;5.404;2022-09-12T15:09:07;34.60;59.50
13049;DHT22;6591;51.446;5.404;2022-09-12T15:11:38;34.60;60.50
13049;DHT22;6591;51.446;5.404;2022-09-12T15:14:14;34.60;60.10
13049;DHT22;6591;51.446;5.404;2022-09-12T15:16:42;34.60;58.70
13049;DHT22;6591;51.446;5.404;2022-09-12T15:19:10;32.70;59.00
13049;DHT22;6591;51.446;5.404;2022-09-12T15:21:37;34.50;60.30
13049;DHT22;6591;51.446;5.404;2022-09-12T15:24:04;34.50;60.10
13049;DHT22;6591;51.446;5.404;2022-09-12T15:26:31;34.50;60.10
13049;DHT22;6591;51.446;5.404;2022-09-12T15:28:58;34.50;60.00
13049;DHT22;6591;51.446;5.404;2022-09-12T15:31:30;34.50;59.80
13049;DHT22;6591;51.446;5.404;2022-09-12T15:34:01;34.50;59.00
13049;DHT22;6591;51.446;5.404;2022-09-12T15:36:28;34.60;59.30
13049;DHT22;6591;51.446;5.404;2022-09-12T15:38:55;34.60;59.30
13049;DHT22;6591;51.446;5.404;2022-09-12T15:41:32;34.70;59.50
13049;DHT22;6591;51.446;5.404;2022-09-12T15:44:04;34.60;57.80
13049;DHT22;6591;51.446;5.404;2022-09-12T15:46:33;34.70;59.00
13049;DHT22;6591;51.446;5.404;2022-09-12T15:49:00;34.60;58.80
13049;DHT22;6591;51.446;5.404;2022-09-12T15:51:27;34.70;59.10
13049;DHT22;6591;51.446;5.404;2022-09-12T15:53:54;34.70;58.90
13049;DHT22;6591;51.446;5.404;2022-09-12T15:56:22;34.70;59.00
13049;DHT22;6591;51.446;5.404;2022-09-12T15:58:49;34.80;58.90
13049;DHT22;6591;51.446;5.404;2022-09-12T16:01:26;34.90;58.40
13049;DHT22;6591;51.446;5.404;2022-09-12T16:03:54;34.90;58.50
13049;DHT22;6591;51.446;5.404;2022-09-12T16:06:22;35.00;58.50
13049;DHT22;6591;51.446;5.404;2022-09-12T16:08:50;35.10;58.60
13049;DHT22;6591;51.446;5.404;2022-09-12T16:11:26;35.20;58.20
13049;DHT22;6591;51.446;5.404;2022-09-12T16:13:54;35.20;56.90
13049;DHT22;6591;51.446;5.404;2022-09-12T16:16:23;35.40;58.10
13049;DHT22;6591;51.446;5.404;2022-09-12T16:18:50;35.40;57.80
13049;DHT22;6591;51.446;5.404;2022-09-12T16:21:17;36.00;58.60
13049;DHT22;6591;51.446;5.404;2022-09-12T16:23:46;35.40;57.90
13049;DHT22;6591;51.446;5.404;2022-09-12T16:26:14;35.40;57.80
13049;DHT22;6591;51.446;5.404;2022-09-12T16:28:42;35.40;57.50
13049;DHT22;6591;51.446;5.404;2022-09-12T16:31:11;35.50;57.80
13049;DHT22;6591;51.446;5.404;2022-09-12T16:33:39;35.40;57.40
13049;DHT22;6591;51.446;5.404;2022-09-12T16:36:12;35.50;57.30
13049;DHT22;6591;51.446;5.404;2022-09-12T16:38:42;35.40;55.60
13049;DHT22;6591;51.446;5.404;2022-09-12T16:41:11;35.30;56.00
13049;DHT22;6591;51.446;5.404;2022-09-12T16:43:39;35.10;55.90
13049;DHT22;6591;51.446;5.404;2022-09-12T16:46:15;35.00;56.00
13049;DHT22;6591;51.446;5.404;2022-09-12T16:48:45;35.00;56.80
13049;DHT22;6591;51.446;5.404;2022-09-12T16:51:21;34.70;55.40
13049;DHT22;6591;51.446;5.404;2022-09-12T16:53:53;34.50;54.80
13049;DHT22;6591;51.446;5.404;2022-09-12T16:56:22;34.20;54.60
13049;DHT22;6591;51.446;5.404;2022-09-12T16:58:50;33.80;54.50
13049;DHT22;6591;51.446;5.404;2022-09-12T17:01:22;33.50;54.80
13049;DHT22;6591;51.446;5.404;2022-09-12T17:03:52;33.20;54.40
13049;DHT22;6591;51.446;5.404;2022-09-12T17:06:21;32.80;55.20
13049;DHT22;6591;51.446;5.404;2022-09-12T17:08:50;32.40;55.10
13049;DHT22;6591;51.446;5.404;2022-09-12T17:11:23;32.10;55.20
13049;DHT22;6591;51.446;5.404;2022-09-12T17:13:54;31.70;55.50
13049;DHT22;6591;51.446;5.404;2022-09-12T17:16:37;31.20;56.00
13049;DHT22;6591;51.446;5.404;2022-09-12T17:19:06;30.80;56.60
13049;DHT22;6591;51.446;5.404;2022-09-12T17:21:34;30.40;56.90
13049;DHT22;6591;51.446;5.404;2022-09-12T17:24:02;30.10;57.40
13049;DHT22;6591;51.446;5.404;2022-09-12T17:26:29;29.80;58.20
13049;DHT22;6591;51.446;5.404;2022-09-12T17:28:56;29.50;58.60
13049;DHT22;6591;51.446;5.404;2022-09-12T17:31:23;29.10;58.80
13049;DHT22;6591;51.446;5.404;2022-09-12T17:33:55;29.80;60.10
13049;DHT22;6591;51.446;5.404;2022-09-12T17:36:27;28.60;60.00
13049;DHT22;6591;51.446;5.404;2022-09-12T17:38:57;28.30;60.90
13049;DHT22;6591;51.446;5.404;2022-09-12T17:41:26;28.70;61.90
13049;DHT22;6591;51.446;5.404;2022-09-12T17:43:58;27.80;62.30
13049;DHT22;6591;51.446;5.404;2022-09-12T17:46:37;27.60;62.90
13049;DHT22;6591;51.446;5.404;2022-09-12T17:49:15;28.60;64.40
13049;DHT22;6591;51.446;5.404;2022-09-12T17:51:44;27.00;63.40
13049;DHT22;6591;51.446;5.404;2022-09-12T17:54:16;26.80;63.50
13049;DHT22;6591;51.446;5.404;2022-09-12T17:56:45;29.20;67.00
13049;DHT22;6591;51.446;5.404;2022-09-12T17:59:18;26.40;65.40
13049;DHT22;6591;51.446;5.404;2022-09-12T18:01:47;26.30;66.30
13049;DHT22;6591;51.446;5.404;2022-09-12T18:04:33;25.50;66.20
13049;DHT22;6591;51.446;5.404;2022-09-12T18:07:00;25.90;66.80
13049;DHT22;6591;51.446;5.404;2022-09-12T18:09:27;25.70;67.60
13049;DHT22;6591;51.446;5.404;2022-09-12T18:11:55;24.80;67.60
13049;DHT22;6591;51.446;5.404;2022-09-12T18:14:22;26.80;70.00
13049;DHT22;6591;51.446;5.404;2022-09-12T18:16:53;25.30;69.50
13049;DHT22;6591;51.446;5.404;2022-09-12T18:19:23;25.10;70.00
13049;DHT22;6591;51.446;5.404;2022-09-12T18:21:50;25.50;71.00
13049;DHT22;6591;51.446;5.404;2022-09-12T18:24:17;24.90;71.20
13049;DHT22;6591;51.446;5.404;2022-09-12T18:26:44;25.70;72.30
13049;DHT22;6591;51.446;5.404;2022-09-12T18:29:12;24.80;72.20
13049;DHT22;6591;51.446;5.404;2022-09-12T18:31:43;24.50;72.90
13049;DHT22;6591;51.446;5.404;2022-09-12T18:34:11;25.20;73.90
13049;DHT22;6591;51.446;5.404;2022-09-12T18:36:44;24.20;73.50
13049;DHT22;6591;51.446;5.404;2022-09-12T18:39:13;24.10;74.90
13049;DHT22;6591;51.446;5.404;2022-09-12T18:41:41;24.00;75.10
13049;DHT22;6591;51.446;5.404;2022-09-12T18:44:11;25.20;76.40
13049;DHT22;6591;51.446;5.404;2022-09-12T18:46:38;25.30;77.40
13049;DHT22;6591;51.446;5.404;2022-09-12T18:49:06;24.80;77.30
13049;DHT22;6591;51.446;5.404;2022-09-12T18:51:35;23.60;77.00